Time,TemperatureF,DewpointF,PressureIn,WindDirection,WindDirectionDegrees,WindSpeedMPH,WindSpeedGustMPH,Humidity,HourlyPrecipIn,Conditions,Clouds,dailyrainin,SoftwareType,DateUTC
2013-09-15 00:02:00,-999.0,-99.9,30.28,NW,315,0.0,0.0,-999,-99.99,,,-99.99,,2013-09-15 04:02:00,
2013-09-15 10:12:00,59.0,42.0,30.36,NNW,338,0.0,2.0,53,0.00,,,0.00,,2013-09-15 14:12:00,
2013-09-15 10:22:00,61.0,47.0,30.36,NNW,338,1.0,1.0,59,0.00,,,0.00,,2013-09-15 14:22:00,
2013-09-15 15:22:00,72.0,52.0,30.29,WSW,258,1.0,3.0,49,0.00,,,0.00,,2013-09-15 19:22:00,
2013-09-15 15:52:00,73.0,53.0,30.28,West,260,2.0,3.0,49,0.01,,,0.01,,2013-09-15 19:52:00,
2013-09-15 16:11:00,73.0,52.0,30.28,NNW,338,0.0,2.0,47,0.01,,,0.01,,2013-09-15 20:11:00,
2013-09-15 16:22:00,73.0,55.0,30.28,SE,144,1.0,2.0,54,0.01,,,0.01,,2013-09-15 20:22:00,
2013-09-15 16:42:00,73.0,56.0,30.27,SE,142,3.0,5.0,55,0.01,,,0.01,,2013-09-15 20:42:00,
2013-09-15 16:53:00,73.0,56.0,30.26,SE,146,2.0,5.0,55,0.00,,,0.01,,2013-09-15 20:53:00,
2013-09-15 17:11:00,73.0,56.0,30.26,SE,130,3.0,7.0,56,0.00,,,0.01,,2013-09-15 21:11:00,
2013-09-15 17:22:00,75.0,58.0,30.26,SSE,166,2.0,3.0,55,0.00,,,0.01,,2013-09-15 21:22:00,
2013-09-15 17:44:00,73.0,56.0,30.25,SE,135,2.0,3.0,56,0.00,,,0.01,,2013-09-15 21:44:00,
2013-09-15 17:54:00,72.0,56.0,30.25,SW,225,1.0,2.0,57,0.00,,,0.01,,2013-09-15 21:54:00,
2013-09-15 18:14:00,72.0,56.0,30.25,SSE,153,2.0,2.0,58,0.00,,,0.01,,2013-09-15 22:14:00,
2013-09-15 18:23:00,71.0,56.0,30.25,SSE,155,1.0,3.0,59,0.00,,,0.01,,2013-09-15 22:23:00,
2013-09-15 18:53:00,71.0,56.0,30.25,SE,135,1.0,1.0,59,0.00,,,0.01,,2013-09-15 22:53:00,
2013-09-15 19:12:00,70.0,55.0,30.24,SE,135,0.0,0.0,59,0.00,,,0.01,,2013-09-15 23:12:00,
2013-09-15 19:22:00,69.0,54.0,30.24,SE,135,0.0,0.0,59,0.00,,,0.01,,2013-09-15 23:22:00,
2013-09-15 19:53:00,67.0,52.0,30.25,SE,135,0.0,0.0,59,0.00,,,0.01,,2013-09-15 23:53:00,
2013-09-15 20:11:00,67.0,52.0,30.25,SE,135,0.0,0.0,59,0.00,,,0.01,,2013-09-16 00:11:00,
2013-09-15 20:22:00,67.0,52.0,30.25,SSW,203,0.0,0.0,58,0.00,,,0.01,,2013-09-16 00:22:00,
2013-09-15 20:42:00,67.0,52.0,30.26,SE,135,1.0,1.0,58,0.00,,,0.01,,2013-09-16 00:42:00,
2013-09-15 20:52:00,67.0,52.0,30.26,SSW,212,0.0,1.0,58,0.00,,,0.01,,2013-09-16 00:52:00,
2013-09-15 21:12:00,66.0,51.0,30.26,SW,214,1.0,2.0,59,0.00,,,0.01,,2013-09-16 01:12:00,
2013-09-15 21:21:00,65.0,50.0,30.26,WSW,248,1.0,1.0,59,0.00,,,0.01,,2013-09-16 01:21:00,
2013-09-15 21:42:00,65.0,50.0,30.26,WSW,237,1.0,1.0,59,0.00,,,0.01,,2013-09-16 01:42:00,
2013-09-15 21:52:00,65.0,50.0,30.26,WSW,237,1.0,1.0,59,0.00,,,0.01,,2013-09-16 01:52:00,
2013-09-15 22:12:00,64.0,49.0,30.27,WSW,248,0.0,1.0,59,0.00,,,0.01,,2013-09-16 02:12:00,
2013-09-15 22:22:00,64.0,49.0,30.26,SW,225,1.0,2.0,59,0.00,,,0.01,,2013-09-16 02:22:00,
2013-09-15 22:42:00,64.0,49.0,30.26,NNE,23,1.0,1.0,59,0.00,,,0.01,,2013-09-16 02:42:00,
2013-09-15 22:52:00,64.0,49.0,30.25,ESE,117,1.0,2.0,59,0.00,,,0.01,,2013-09-16 02:52:00,
2013-09-15 23:11:00,64.0,49.0,30.26,SSW,203,0.0,1.0,58,0.00,,,0.01,,2013-09-16 03:11:00,
2013-09-15 23:22:00,63.0,48.0,30.26,SW,225,1.0,1.0,57,0.00,,,0.01,,2013-09-16 03:22:00,
2013-09-15 23:34:00,63.0,48.0,30.26,SW,225,1.0,1.0,57,0.00,,,0.01,,2013-09-16 03:34:00,
2013-09-15 23:54:00,63.0,47.0,30.25,SSW,203,0.0,0.0,55,0.00,,,0.01,,2013-09-16 03:54:00,